George Bush Intercontinental Houston Airport
KIAH : now visible

Airfield :











YOU CAN JOIN US ON...

 
LOGIN :

Register | Disclaimer

   EN    FR    IT 

 









Legend :    VFR   Marginal VFR   IFR   Intensive IFR   Very Intensive IFR
Visi :
Ceiling :
>= 8 km
>= 3000ft
5 to 8 km
1000 to 3000 ft
1500m to 5 km
500 to 1000 ft
800 to 1500m
200 to 500 ft
< 800m
< 200 ft
Symbols :   Thunderstorms  Fog  Heavy snow  Heavy precipitations  Wind > 20 kt






- Airport Elevation : 97 ft
- IATA code : IAH


KIAH - George Bush Intercontinental Houston

CURRENT METAR :
  • 280653Z 13013KT 10SM OVC014 13/09 A2994 RMK AO2 SLP136 T01330094

EXPIRED METARs :
  • 280553Z 12009KT 10SM OVC014 13/10 A2997 RMK AO2 SLP149 T01330100 10133 20128 401670100 58009
  • 280453Z 12010KT 10SM OVC014 13/10 A2999 RMK AO2 SLP157 T01330100

TAF KIAH
Valid from the 28 at 06:00 until the 29 at 12:00 UTC


280521Z 2806/2912 12010KT P6SM OVC015
FM281000 VRB03KT 5SM BR VCSH SCT007 OVC015
TEMPO 2811/2813 OVC007
FM281500 11007KT 5SM -SHRA SCT010 OVC020
FM281700 15012KT 6SM -SHRA OVC020
FM290000 19010KT P6SM VCSH BKN015 OVC025
FM290400 31008KT P6SM VCSH BKN035



MET'MAP, your aeronautical weather chart ! - Copyright ORBIFLY December 2007 - Disclaimer

ORBIFLY MET'MAP TEAM :

Programming & Development : Alexandra Zaïnal
Concept & original design : Baudouin d'Aumeries
Assistance for programming : Marc-Olivier Méhu
Technical & hardware support : Manuel Goepfert

Contact : metmap@orbifly.com




SOURCES & CREDITS :

   NOAA       Earth
Advisory